createdAt,value
2018-04-27T00:01:58.848Z,8.21
2018-04-27T00:04:27.191Z,8.24
2018-04-27T00:06:55.520Z,8.06
2018-04-27T00:09:24.179Z,8.12
2018-04-27T00:11:52.518Z,8.12
2018-04-27T00:14:22.059Z,8.05
2018-04-27T00:16:51.233Z,7.72
2018-04-27T00:19:20.422Z,7.62
2018-04-27T00:21:48.766Z,7.69
2018-04-27T00:24:18.034Z,7.64
2018-04-27T00:26:46.361Z,7.56
2018-04-27T00:29:14.702Z,7.53
2018-04-27T00:31:43.435Z,7.36
2018-04-27T00:34:12.402Z,7.41
2018-04-27T00:36:40.716Z,7.52
2018-04-27T00:39:09.062Z,7.51
2018-04-27T00:41:37.375Z,7.41
2018-04-27T00:44:05.722Z,7.25
2018-04-27T00:46:34.499Z,7.34
2018-04-27T00:49:02.826Z,7.37
2018-04-27T00:51:31.200Z,7.30
2018-04-27T00:53:59.541Z,7.25
2018-04-27T00:56:28.622Z,7.26
2018-04-27T00:58:57.731Z,7.17
2018-04-27T01:01:27.013Z,7.13
2018-04-27T01:03:55.811Z,7.20
2018-04-27T01:06:24.537Z,7.02
2018-04-27T01:08:53.071Z,6.99
2018-04-27T01:11:23.591Z,6.85
2018-04-27T01:13:51.924Z,7.00
2018-04-27T01:16:20.245Z,6.92
2018-04-27T01:18:49.479Z,6.89
2018-04-27T01:21:17.782Z,6.94
2018-04-27T01:23:46.531Z,6.61
2018-04-27T01:26:14.877Z,6.69
2018-04-27T01:28:43.206Z,6.95
2018-04-27T01:31:11.873Z,6.70
2018-04-27T01:33:40.221Z,6.81
2018-04-27T01:36:09.532Z,6.91
2018-04-27T01:38:37.916Z,6.96
2018-04-27T01:41:06.241Z,6.99
2018-04-27T01:43:34.552Z,6.84
2018-04-27T01:46:02.955Z,6.50
2018-04-27T01:48:32.357Z,6.67
2018-04-27T01:51:00.689Z,6.50
2018-04-27T01:53:29.875Z,6.60
2018-04-27T01:55:58.211Z,6.78
2018-04-27T01:58:26.529Z,6.73
2018-04-27T02:00:54.940Z,6.87
2018-04-27T02:03:24.121Z,6.82
2018-04-27T02:05:52.488Z,6.78
2018-04-27T02:08:20.824Z,6.81
2018-04-27T02:10:49.151Z,6.53
2018-04-27T02:13:17.491Z,6.42
2018-04-27T02:15:45.923Z,6.33
2018-04-27T02:18:14.277Z,6.39
2018-04-27T02:20:42.625Z,6.60
2018-04-27T02:23:11.437Z,6.58
2018-04-27T02:25:39.871Z,6.48
2018-04-27T02:28:08.198Z,6.50
2018-04-27T02:30:36.626Z,6.40
2018-04-27T02:33:05.602Z,6.51
2018-04-27T02:35:33.941Z,6.63
2018-04-27T02:38:02.283Z,6.71
2018-04-27T02:40:30.976Z,6.78
2018-04-27T02:43:00.227Z,6.87
2018-04-27T02:45:29.212Z,6.79
2018-04-27T02:47:57.529Z,6.77
2018-04-27T02:50:25.887Z,6.73
2018-04-27T02:52:54.223Z,6.55
2018-04-27T02:55:22.810Z,6.60
2018-04-27T02:57:51.990Z,6.64
2018-04-27T03:00:20.632Z,6.44
2018-04-27T03:02:48.936Z,6.46
2018-04-27T03:05:17.404Z,6.48
2018-04-27T03:07:46.141Z,6.37
2018-04-27T03:10:14.487Z,6.26
2018-04-27T03:12:42.800Z,6.10
2018-04-27T03:15:11.999Z,6.15
2018-04-27T03:17:40.355Z,6.30
2018-04-27T03:20:09.149Z,6.27
2018-04-27T03:22:37.477Z,6.13
2018-04-27T03:25:05.842Z,6.13
2018-04-27T03:27:34.159Z,6.18
2018-04-27T03:30:02.853Z,6.30
2018-04-27T03:32:31.150Z,6.38
2018-04-27T03:34:59.545Z,6.37
2018-04-27T03:37:27.854Z,6.38
2018-04-27T03:39:57.085Z,6.33
2018-04-27T03:42:25.411Z,6.29
2018-04-27T03:44:54.602Z,6.45
2018-04-27T03:47:22.924Z,6.41
2018-04-27T03:49:51.277Z,6.39
2018-04-27T03:52:20.410Z,6.30
2018-04-27T03:54:49.030Z,6.23
2018-04-27T03:57:17.577Z,6.17
2018-04-27T03:59:58.403Z,6.22
2018-04-27T04:02:38.999Z,6.05
2018-04-27T04:05:19.137Z,6.18
2018-04-27T04:07:47.453Z,6.06
2018-04-27T04:10:16.318Z,6.18
2018-04-27T04:12:45.117Z,6.19
2018-04-27T04:15:14.513Z,6.00
2018-04-27T04:17:43.035Z,5.88
2018-04-27T04:20:12.038Z,5.94
2018-04-27T04:22:40.369Z,5.70
2018-04-27T04:25:08.716Z,5.80
2018-04-27T04:27:37.081Z,5.90
2018-04-27T04:30:05.934Z,5.87
2018-04-27T04:32:34.287Z,5.93
2018-04-27T04:35:03.562Z,6.02
2018-04-27T04:37:32.273Z,5.94
2018-04-27T04:40:00.602Z,6.01
2018-04-27T04:42:28.964Z,5.87
2018-04-27T04:44:57.309Z,5.86
2018-04-27T04:47:25.660Z,5.78
2018-04-27T04:49:54.013Z,5.71
2018-04-27T04:52:22.396Z,5.70
2018-04-27T04:54:52.251Z,5.73
2018-04-27T04:57:20.611Z,5.78
2018-04-27T04:59:48.928Z,5.66
2018-04-27T05:02:17.991Z,5.85
2018-04-27T05:04:46.700Z,5.78
2018-04-27T05:07:15.945Z,5.99
2018-04-27T05:09:44.844Z,5.99
2018-04-27T05:12:13.231Z,6.13
2018-04-27T05:14:41.565Z,6.28
2018-04-27T05:17:09.893Z,6.28
2018-04-27T05:19:38.213Z,6.48
2018-04-27T05:22:06.562Z,6.63
2018-04-27T05:24:34.877Z,6.61
2018-04-27T05:27:03.223Z,6.62
2018-04-27T05:29:31.541Z,6.76
2018-04-27T05:31:59.935Z,6.88
2018-04-27T05:34:29.041Z,6.73
2018-04-27T05:36:58.454Z,6.87
2018-04-27T05:39:26.776Z,7.04
2018-04-27T05:41:55.112Z,7.18
2018-04-27T05:44:23.457Z,7.31
2018-04-27T05:46:51.801Z,7.46
2018-04-27T05:49:20.898Z,7.62
2018-04-27T05:51:49.238Z,7.70
2018-04-27T05:54:17.598Z,7.93
2018-04-27T05:56:46.671Z,8.11
2018-04-27T05:59:15.219Z,8.28
2018-04-27T06:01:43.575Z,8.51
2018-04-27T06:04:13.672Z,8.60
2018-04-27T06:06:42.020Z,8.18
2018-04-27T06:09:12.056Z,8.57
2018-04-27T06:11:41.195Z,8.81
2018-04-27T06:14:10.405Z,8.82
2018-04-27T06:16:38.779Z,8.82
2018-04-27T06:19:07.092Z,8.91
2018-04-27T06:21:35.487Z,9.17
2018-04-27T06:24:04.977Z,9.04
2018-04-27T06:26:33.298Z,9.16
2018-04-27T06:29:01.656Z,9.24
2018-04-27T06:31:30.053Z,9.44
2018-04-27T06:33:58.363Z,9.55
2018-04-27T06:36:26.751Z,9.57
2018-04-27T06:38:55.988Z,9.62
2018-04-27T06:41:24.363Z,9.74
2018-04-27T06:43:52.695Z,9.66
2018-04-27T06:46:21.913Z,9.68
2018-04-27T06:48:50.245Z,9.65
2018-04-27T06:51:18.938Z,9.89
2018-04-27T06:53:48.114Z,9.95
2018-04-27T06:56:16.463Z,9.83
2018-04-27T06:58:44.798Z,10.08
2018-04-27T07:01:13.184Z,10.37
2018-04-27T07:03:41.507Z,10.47
2018-04-27T07:06:09.856Z,10.64
2018-04-27T07:08:38.613Z,10.70
2018-04-27T07:11:07.891Z,10.77
2018-04-27T07:13:36.717Z,10.77
2018-04-27T07:16:05.077Z,10.76
2018-04-27T07:18:33.409Z,10.68
2018-04-27T07:21:01.824Z,11.00
2018-04-27T07:23:30.142Z,11.11
2018-04-27T07:25:58.613Z,11.38
2018-04-27T07:28:26.847Z,11.52
2018-04-27T07:30:55.220Z,11.46
2018-04-27T07:33:24.640Z,11.63
2018-04-27T07:35:53.310Z,11.59
2018-04-27T07:38:21.637Z,11.57
2018-04-27T07:40:49.995Z,11.80
2018-04-27T07:43:18.321Z,11.95
2018-04-27T07:45:47.245Z,11.96
2018-04-27T07:48:15.907Z,11.86
2018-04-27T07:50:45.645Z,12.17
2018-04-27T07:53:13.985Z,12.00
2018-04-27T07:55:42.324Z,12.21
2018-04-27T07:58:10.667Z,12.46
2018-04-27T08:00:39.308Z,12.66
2018-04-27T08:03:07.879Z,12.68
2018-04-27T08:05:36.237Z,12.79
2018-04-27T08:08:06.356Z,12.93
2018-04-27T08:10:36.822Z,12.95
2018-04-27T08:13:05.211Z,13.12
2018-04-27T08:15:33.543Z,12.84
2018-04-27T08:18:02.571Z,13.05
2018-04-27T08:20:31.549Z,12.91
2018-04-27T08:22:59.921Z,13.29
2018-04-27T08:25:38.128Z,13.44
2018-04-27T08:28:06.716Z,13.67
2018-04-27T08:30:35.133Z,13.94
2018-04-27T08:33:04.838Z,13.74
2018-04-27T08:35:33.169Z,13.74
2018-04-27T08:38:01.579Z,13.90
2018-04-27T08:40:29.963Z,14.13
2018-04-27T08:42:58.306Z,14.18
2018-04-27T08:45:27.709Z,14.09
2018-04-27T08:47:56.408Z,14.48
2018-04-27T08:50:28.555Z,14.67
2018-04-27T08:52:57.627Z,14.88
2018-04-27T08:55:26.239Z,14.91
2018-04-27T08:57:54.594Z,14.60
2018-04-27T09:00:23.660Z,14.45
2018-04-27T09:02:52.993Z,14.66
2018-04-27T09:05:21.328Z,14.72
2018-04-27T09:07:49.702Z,14.78
2018-04-27T09:10:18.032Z,14.86
2018-04-27T09:12:46.383Z,15.18
2018-04-27T09:15:15.046Z,15.11
2018-04-27T09:17:43.817Z,15.01
2018-04-27T09:20:12.140Z,15.26
2018-04-27T09:22:41.859Z,14.97
2018-04-27T09:25:10.255Z,15.45
2018-04-27T09:27:39.479Z,15.64
2018-04-27T09:30:08.601Z,15.86
2018-04-27T09:32:37.745Z,16.03
2018-04-27T09:35:06.126Z,16.04
2018-04-27T09:37:34.598Z,15.80
2018-04-27T09:40:02.917Z,15.78
2018-04-27T09:42:31.289Z,16.16
2018-04-27T09:45:00.443Z,16.00
2018-04-27T09:47:29.652Z,16.10
2018-04-27T09:49:58.637Z,16.28
2018-04-27T09:52:27.921Z,15.99
2018-04-27T09:54:56.704Z,15.46
2018-04-27T09:57:25.076Z,15.71
2018-04-27T09:59:53.663Z,16.27
2018-04-27T10:02:22.027Z,16.29
2018-04-27T10:04:51.263Z,16.28
2018-04-27T10:07:20.129Z,16.13
2018-04-27T10:09:48.497Z,15.04
2018-04-27T10:12:16.851Z,15.29
2018-04-27T10:14:45.183Z,15.24
2018-04-27T10:17:14.466Z,16.13
2018-04-27T10:19:42.821Z,16.02
2018-04-27T10:22:11.139Z,16.57
2018-04-27T10:24:40.303Z,17.09
2018-04-27T10:27:08.660Z,17.49
2018-04-27T10:29:37.092Z,17.80
2018-04-27T10:32:05.415Z,17.89
2018-04-27T10:34:34.153Z,17.99
2018-04-27T10:37:03.631Z,18.19
2018-04-27T10:39:32.499Z,17.97
2018-04-27T10:42:01.807Z,17.80
2018-04-27T10:44:30.143Z,17.69
2018-04-27T10:46:59.264Z,18.02
2018-04-27T10:49:28.447Z,18.07
2018-04-27T10:51:57.704Z,18.17
2018-04-27T10:54:26.102Z,18.12
2018-04-27T10:56:54.485Z,17.98
2018-04-27T10:59:23.695Z,18.12
2018-04-27T11:01:52.398Z,18.30
2018-04-27T11:04:20.736Z,19.10
2018-04-27T11:06:50.274Z,18.40
2018-04-27T11:09:19.421Z,18.88
2018-04-27T11:11:47.763Z,18.57
2018-04-27T11:14:18.027Z,18.06
2018-04-27T11:16:47.257Z,18.64
2018-04-27T11:19:15.538Z,19.00
2018-04-27T11:21:44.103Z,19.66
2018-04-27T11:24:12.870Z,19.90
2018-04-27T11:26:42.017Z,19.85
2018-04-27T11:29:10.626Z,19.78
2018-04-27T11:31:40.198Z,19.16
2018-04-27T11:34:09.441Z,17.97
2018-04-27T11:36:38.528Z,18.68
2018-04-27T11:39:07.018Z,19.11
2018-04-27T11:41:35.569Z,19.14
2018-04-27T11:44:03.929Z,19.33
2018-04-27T11:46:32.290Z,18.98
2018-04-27T11:49:00.969Z,17.83
2018-04-27T11:51:30.767Z,18.56
2018-04-27T11:53:59.254Z,19.21
2018-04-27T11:56:27.577Z,18.80
2018-04-27T11:58:55.947Z,19.15
2018-04-27T12:01:25.030Z,19.84
2018-04-27T12:03:53.703Z,19.66
2018-04-27T12:06:22.383Z,19.84
2018-04-27T12:08:50.740Z,20.26
2018-04-27T12:11:19.048Z,19.76
2018-04-27T12:13:48.307Z,19.78
2018-04-27T12:16:17.289Z,19.06
2018-04-27T12:18:45.640Z,19.31
2018-04-27T12:21:13.976Z,19.12
2018-04-27T12:23:42.559Z,19.20
2018-04-27T12:26:11.319Z,19.33
2018-04-27T12:28:39.718Z,19.09
2018-04-27T12:31:08.051Z,18.55
2018-04-27T12:33:36.396Z,18.99
2018-04-27T12:36:05.829Z,19.88
2018-04-27T12:38:34.164Z,19.38
2018-04-27T12:41:02.622Z,19.33
2018-04-27T12:43:31.412Z,19.58
2018-04-27T12:46:00.908Z,19.24
2018-04-27T12:48:29.257Z,19.59
2018-04-27T12:50:58.394Z,19.65
2018-04-27T12:53:27.718Z,19.76
2018-04-27T12:55:56.393Z,19.85
2018-04-27T12:58:25.658Z,19.00
2018-04-27T13:00:54.808Z,19.45
2018-04-27T13:03:23.676Z,19.75
2018-04-27T13:05:52.001Z,20.08
2018-04-27T13:08:20.340Z,20.38
2018-04-27T13:10:48.720Z,20.55
2018-04-27T13:13:17.083Z,20.94
2018-04-27T13:15:47.298Z,20.93
2018-04-27T13:18:15.775Z,18.89
2018-04-27T13:20:44.473Z,19.88
2018-04-27T13:23:13.663Z,20.21
2018-04-27T13:25:42.648Z,20.81
2018-04-27T13:28:12.151Z,20.13
2018-04-27T13:30:40.602Z,19.72
2018-04-27T13:33:09.212Z,19.61
2018-04-27T13:35:38.256Z,19.93
2018-04-27T13:38:06.609Z,20.26
2018-04-27T13:40:34.965Z,20.15
2018-04-27T13:43:03.313Z,20.64
2018-04-27T13:45:31.724Z,21.00
2018-04-27T13:48:00.023Z,19.38
2018-04-27T13:50:29.061Z,20.16
2018-04-27T13:52:57.465Z,20.94
2018-04-27T13:55:27.141Z,20.97
2018-04-27T13:57:55.924Z,21.02
2018-04-27T14:00:24.269Z,21.34
2018-04-27T14:02:53.010Z,21.40
2018-04-27T14:05:21.599Z,20.74
2018-04-27T14:07:49.953Z,20.64
2018-04-27T14:10:18.275Z,20.99
2018-04-27T14:12:46.942Z,21.44
2018-04-27T14:15:15.259Z,21.50
2018-04-27T14:17:43.618Z,21.25
2018-04-27T14:20:11.944Z,20.93
2018-04-27T14:22:40.959Z,21.09
2018-04-27T14:25:10.236Z,21.09
2018-04-27T14:27:41.741Z,20.65
2018-04-27T14:30:10.434Z,20.60
2018-04-27T14:32:39.633Z,21.27
2018-04-27T14:35:08.011Z,21.70
2018-04-27T14:37:36.340Z,21.75
2018-04-27T14:40:04.937Z,21.74
2018-04-27T14:42:33.288Z,21.51
2018-04-27T14:45:01.851Z,21.23
2018-04-27T14:47:30.237Z,21.54
2018-04-27T14:49:58.561Z,21.05
2018-04-27T14:52:27.312Z,20.66
2018-04-27T14:54:56.596Z,21.47
2018-04-27T14:57:24.937Z,21.90
2018-04-27T14:59:53.693Z,21.26
2018-04-27T15:02:22.040Z,21.47
2018-04-27T15:04:51.609Z,21.56
2018-04-27T15:07:19.958Z,21.45
2018-04-27T15:09:48.331Z,21.53
2018-04-27T15:12:17.519Z,21.75
2018-04-27T15:14:46.635Z,21.41
2018-04-27T15:17:15.099Z,21.30
2018-04-27T15:19:43.525Z,20.67
2018-04-27T15:22:11.904Z,20.97
2018-04-27T15:24:41.418Z,20.90
2018-04-27T15:27:10.683Z,20.70
2018-04-27T15:29:39.027Z,20.59
2018-04-27T15:32:07.396Z,20.96
2018-04-27T15:34:36.549Z,20.94
2018-04-27T15:37:04.887Z,21.17
2018-04-27T15:39:33.350Z,21.13
2018-04-27T15:42:01.684Z,21.32
2018-04-27T15:44:30.302Z,21.07
2018-04-27T15:46:59.566Z,20.84
2018-04-27T15:49:27.920Z,20.63
2018-04-27T15:51:57.173Z,20.95
2018-04-27T15:54:26.050Z,21.17
2018-04-27T15:56:54.423Z,21.46
2018-04-27T15:59:23.731Z,21.68
2018-04-27T16:01:53.341Z,21.92
2018-04-27T16:04:21.974Z,22.47
2018-04-27T16:06:50.899Z,21.70
2018-04-27T16:09:19.624Z,21.56
2018-04-27T16:11:48.064Z,21.43
2018-04-27T16:14:16.411Z,21.53
2018-04-27T16:16:45.233Z,22.16
2018-04-27T16:19:14.132Z,21.86
2018-04-27T16:21:42.471Z,22.32
2018-04-27T16:24:11.749Z,22.09
2018-04-27T16:26:40.129Z,22.57
2018-04-27T16:29:08.489Z,23.02
2018-04-27T16:31:36.839Z,22.59
2018-04-27T16:34:05.652Z,22.11
2018-04-27T16:36:34.874Z,21.76
2018-04-27T16:39:03.232Z,21.63
2018-04-27T16:41:31.540Z,21.62
2018-04-27T16:44:00.336Z,21.27
2018-04-27T16:46:29.055Z,21.36
2018-04-27T16:48:58.217Z,21.21
2018-04-27T16:51:26.664Z,21.37
2018-04-27T16:53:55.856Z,21.44
2018-04-27T16:56:24.607Z,22.07
2018-04-27T16:58:53.660Z,22.09
2018-04-27T17:01:21.999Z,22.03
2018-04-27T17:03:50.365Z,22.10
2018-04-27T17:06:19.497Z,21.91
2018-04-27T17:08:48.653Z,21.87
2018-04-27T17:11:18.087Z,22.04
2018-04-27T17:13:47.268Z,22.23
2018-04-27T17:16:16.894Z,21.74
2018-04-27T17:18:46.191Z,21.44
2018-04-27T17:21:14.520Z,21.22
2018-04-27T17:23:43.604Z,21.14
2018-04-27T17:26:11.924Z,21.09
2018-04-27T17:28:40.362Z,20.99
2018-04-27T17:31:08.624Z,20.90
2018-04-27T17:33:37.656Z,20.88
2018-04-27T17:36:07.501Z,20.79
2018-04-27T17:38:35.857Z,20.62
2018-04-27T17:41:05.403Z,20.88
2018-04-27T17:43:34.629Z,20.86
2018-04-27T17:46:02.881Z,21.00
2018-04-27T17:48:32.753Z,20.72
2018-04-27T17:51:01.534Z,20.70
2018-04-27T17:53:29.936Z,20.63
2018-04-27T17:55:58.247Z,20.50
2018-04-27T17:58:26.587Z,20.39
2018-04-27T18:00:55.267Z,20.26
2018-04-27T18:03:24.366Z,20.11
2018-04-27T18:05:52.922Z,20.09
2018-04-27T18:08:22.184Z,20.04
2018-04-27T18:10:50.564Z,20.16
2018-04-27T18:13:18.962Z,20.14
2018-04-27T18:15:47.332Z,19.99
2018-04-27T18:18:15.818Z,19.98
2018-04-27T18:20:45.073Z,19.83
2018-04-27T18:23:14.366Z,19.52
2018-04-27T18:25:42.768Z,19.41
2018-04-27T18:28:11.037Z,19.25
2018-04-27T18:30:39.411Z,19.22
2018-04-27T18:33:07.790Z,19.08
2018-04-27T18:35:36.488Z,19.02
2018-04-27T18:38:04.935Z,18.82
2018-04-27T18:40:34.197Z,18.69
2018-04-27T18:43:05.198Z,18.72
2018-04-27T18:45:34.686Z,18.73
2018-04-27T18:48:08.472Z,18.61
2018-04-27T18:50:39.765Z,18.53
2018-04-27T18:53:08.826Z,18.55
2018-04-27T18:55:38.148Z,18.51
2018-04-27T18:58:07.328Z,18.33
2018-04-27T19:00:38.869Z,18.24
2018-04-27T19:03:07.740Z,17.77
2018-04-27T19:05:36.833Z,17.80
2018-04-27T19:08:08.703Z,17.74
2018-04-27T19:10:38.002Z,17.58
2018-04-27T19:13:14.556Z,17.39
2018-04-27T19:15:43.409Z,17.49
2018-04-27T19:18:25.330Z,17.26
2018-04-27T19:20:53.805Z,17.30
2018-04-27T19:23:23.805Z,17.21
2018-04-27T19:25:55.907Z,16.90
2018-04-27T19:28:25.049Z,16.99
2018-04-27T19:30:53.516Z,16.86
2018-04-27T19:33:22.292Z,16.78
2018-04-27T19:35:50.980Z,16.86
2018-04-27T19:38:19.856Z,16.74
2018-04-27T19:40:49.143Z,16.81
2018-04-27T19:43:17.824Z,16.65
2018-04-27T19:45:46.349Z,16.59
2018-04-27T19:48:14.793Z,16.49
2018-04-27T19:50:44.092Z,16.30
2018-04-27T19:53:13.253Z,16.21
2018-04-27T19:55:42.657Z,15.86
2018-04-27T19:58:10.989Z,15.84
2018-04-27T20:00:40.402Z,15.79
2018-04-27T20:03:08.744Z,15.77
2018-04-27T20:05:49.926Z,15.67
2018-04-27T20:08:22.098Z,15.70
2018-04-27T20:10:50.583Z,15.72
2018-04-27T20:13:20.688Z,15.25
2018-04-27T20:15:51.715Z,15.10
2018-04-27T20:18:23.784Z,15.09
2018-04-27T20:20:53.914Z,15.12
2018-04-27T20:23:22.943Z,15.15
2018-04-27T20:25:52.557Z,14.73
2018-04-27T20:28:21.120Z,14.88
2018-04-27T20:30:49.509Z,15.02
2018-04-27T20:33:23.677Z,14.78
2018-04-27T20:36:02.916Z,14.97
2018-04-27T20:38:31.975Z,14.87
2018-04-27T20:41:03.366Z,14.85
2018-04-27T20:43:32.059Z,14.88
2018-04-27T20:46:01.287Z,14.85
2018-04-27T20:48:31.788Z,14.85
2018-04-27T20:51:03.109Z,14.68
2018-04-27T20:53:32.416Z,14.49
2018-04-27T20:56:03.307Z,14.28
2018-04-27T20:58:32.196Z,14.40
2018-04-27T21:01:01.486Z,14.03
2018-04-27T21:03:30.540Z,13.77
2018-04-27T21:05:59.064Z,13.96
2018-04-27T21:08:27.392Z,13.78
2018-04-27T21:10:55.834Z,13.77
2018-04-27T21:13:24.620Z,13.88
2018-04-27T21:15:52.978Z,13.57
2018-04-27T21:18:21.579Z,13.48
2018-04-27T21:20:50.683Z,13.42
2018-04-27T21:23:19.351Z,13.54
2018-04-27T21:25:57.622Z,13.70
2018-04-27T21:28:41.751Z,13.62
2018-04-27T21:31:10.095Z,13.69
2018-04-27T21:36:38.792Z,13.73
2018-04-27T21:39:27.159Z,13.57
2018-04-27T21:42:07.199Z,13.64
2018-04-27T21:44:42.177Z,13.46
2018-04-27T21:47:20.568Z,13.38
2018-04-27T21:49:52.392Z,13.37
2018-04-27T21:52:28.116Z,13.22
2018-04-27T21:54:57.299Z,13.44
2018-04-27T21:57:30.285Z,13.27
2018-04-27T22:00:15.706Z,13.26
2018-04-27T22:06:09.647Z,12.66
2018-04-27T22:08:44.221Z,12.95
2018-04-27T22:11:19.109Z,12.50
2018-04-27T22:13:47.902Z,12.21
2018-04-27T22:16:24.804Z,12.39
2018-04-27T22:18:54.723Z,12.54
2018-04-27T22:21:25.071Z,12.41
2018-04-27T22:24:04.942Z,12.49
2018-04-27T22:26:35.549Z,12.65
2018-04-27T22:29:23.017Z,12.43
2018-04-27T22:34:56.317Z,12.33
2018-04-27T22:37:25.947Z,12.01
2018-04-27T22:42:56.233Z,11.96
2018-04-27T22:45:31.217Z,12.13
2018-04-27T22:51:14.997Z,12.49
2018-04-27T22:53:47.225Z,12.60
2018-04-27T22:59:34.852Z,12.66
2018-04-27T23:02:05.879Z,12.52
2018-04-27T23:04:34.829Z,12.43
2018-04-27T23:07:04.477Z,12.45
2018-04-27T23:09:32.860Z,12.50
2018-04-27T23:12:04.006Z,12.60
2018-04-27T23:14:35.883Z,12.65
2018-04-27T23:17:04.291Z,12.57
2018-04-27T23:19:39.527Z,12.44
2018-04-27T23:22:44.402Z,12.40
2018-04-27T23:25:19.857Z,12.51
2018-04-27T23:27:50.477Z,12.49
2018-04-27T23:30:20.259Z,12.48
2018-04-27T23:32:48.652Z,12.30
2018-04-27T23:35:20.194Z,12.17
2018-04-27T23:37:51.744Z,12.36
2018-04-27T23:40:20.880Z,12.24
2018-04-27T23:42:50.174Z,12.24
2018-04-27T23:45:18.606Z,12.27
2018-04-27T23:47:48.516Z,12.27
2018-04-27T23:50:18.387Z,12.20
2018-04-27T23:52:48.281Z,12.09
2018-04-27T23:55:19.853Z,11.81
2018-04-27T23:57:49.451Z,11.67
